WetterOnline ( https://www.wetteronline.de )

Wetter aktuell Düren

Aktuelles Wetter: Nörvenich (120m)

6-stündlich | Neueste Meldungen
Ortszeit Temperatur Wetter
Fr, 19.08. 20:00 23.8° C wolkig
Fr, 19.08. 14:00 24.2° C leicht bewölkt
Fr, 19.08. 8:00 16.9° C leicht bewölkt
Fr, 19.08. 2:00 16.8° C leicht bewölkt
Do, 18.08. 20:00 23.0° C leicht bewölkt
Do, 18.08. 14:00 21.4° C bewölkt
Do, 18.08. 8:00 15.8° C bewölkt
Do, 18.08. 2:00 16.4° C leicht bewölkt
Ortszeit Temperatur Wetter
Fr, 19.08. 20:00 23.8° C wolkig
Fr, 19.08. 19:00 24.1° C bewölkt
Fr, 19.08. 18:00 25.0° C bewölkt
Fr, 19.08. 17:00 25.5° C leicht bewölkt
Fr, 19.08. 16:00 25.6° C wolkig
Fr, 19.08. 15:00 25.1° C leicht bewölkt
Fr, 19.08. 14:00 24.2° C leicht bewölkt
Ortszeit Relative Feuchte Sichtweite
Fr, 19.08. 20:00 57% 25 km
Fr, 19.08. 14:00 54% 15 km
Fr, 19.08. 8:00 90% 6 km
Fr, 19.08. 2:00 82% 25 km
Do, 18.08. 20:00 57% 35 km
Do, 18.08. 14:00 70% 9 km
Do, 18.08. 8:00 95% 2.0 km
Do, 18.08. 2:00 87% 15 km
Ortszeit Relative Feuchte Sichtweite
Fr, 19.08. 20:00 57% 25 km
Fr, 19.08. 19:00 57% 20 km
Fr, 19.08. 18:00 50% 20 km
Fr, 19.08. 17:00 46% 20 km
Fr, 19.08. 16:00 46% 20 km
Fr, 19.08. 15:00 46% 20 km
Fr, 19.08. 14:00 54% 15 km
Ortszeit Niederschlagsmenge Niederschlagsart
Fr, 19.08. 20:00 0.0 l/m2 in 12 Std. -
Fr, 19.08. 14:00 keine Meldung -
Fr, 19.08. 8:00 0.0 l/m2 in 12 Std. -
Fr, 19.08. 2:00 keine Meldung -
Do, 18.08. 20:00 0.0 l/m2 in 12 Std. -
Do, 18.08. 14:00 keine Meldung -
Do, 18.08. 8:00 0.0 l/m2 in 12 Std. -
Do, 18.08. 2:00 keine Meldung -
Ortszeit Niederschlagsmenge Niederschlagsart
Fr, 19.08. 20:00 keine Meldung -
Fr, 19.08. 19:00 keine Meldung -
Fr, 19.08. 18:00 keine Meldung -
Fr, 19.08. 17:00 keine Meldung -
Fr, 19.08. 16:00 keine Meldung -
Fr, 19.08. 15:00 keine Meldung -
Fr, 19.08. 14:00 keine Meldung -
Ortszeit Stärke Spitze Richtung
km/h Bft. km/h Grad Sektor
Fr, 19.08. 20:00 14 3 - 260° W
Fr, 19.08. 14:00 18 3 - 260° W
Fr, 19.08. 8:00 14 3 - 250° W
Fr, 19.08. 2:00 11 2 - 240° SW
Do, 18.08. 20:00 4 1 - 290° W
Do, 18.08. 14:00 4 1 - 50° NO
Do, 18.08. 8:00 7 2 - 240° SW
Do, 18.08. 2:00 7 2 - 240° SW
Ortszeit Stärke Spitze Richtung
km/h Bft. km/h Grad Sektor
Fr, 19.08. 20:00 14 3 - 260° W
Fr, 19.08. 19:00 14 3 - 270° W
Fr, 19.08. 18:00 18 3 - 270° W
Fr, 19.08. 17:00 22 4 - 250° W
Fr, 19.08. 16:00 22 4 - 260° W
Fr, 19.08. 15:00 14 3 - 270° W
Fr, 19.08. 14:00 18 3 - 260° W
Ortszeit Untergrenze Bedeckung Gattung
total tief tief mittel hoch
Fr, 19.08. 20:00 1200 m 6/8 6/8 Cu - -
Fr, 19.08. 14:00 1200 m 6/8 2/8 Cu - Ci
Fr, 19.08. 8:00 270 m 6/8 1/8 St - Ci
Fr, 19.08. 2:00 1500 m 5/8 1/8 Sc - Ci
Do, 18.08. 20:00 3000 m 6/8 2/8 - Ac Ci
Do, 18.08. 14:00 660 m 7/8 7/8 Sc - -
Do, 18.08. 8:00 30 m 8/8 6/8 St - Cs
Do, 18.08. 2:00 7800 m 5/8 0/8 - - Ci
Ortszeit Bedeckungsgrad in Achtel und Wolkenuntergrenze
Fr, 19.08. 20:00 3(1200m) 6(1500m)
Fr, 19.08. 19:00 3(1200m) 7(1500m)
Fr, 19.08. 18:00 1(900m) 6(1200m)
Fr, 19.08. 17:00 1(900m) 3(1200m)
Fr, 19.08. 16:00 3(1200m) 4(8400m)
Fr, 19.08. 15:00 2(1200m) 6(8400m)
Fr, 19.08. 14:00 2(1200m) 6(8400m)
Ortszeit Luftdruck NN (hPa) Tendenz (hPa in 3 Std.)
Fr, 19.08. 20:00 1014 + 0,4
Fr, 19.08. 14:00 1014 - 0,4
Fr, 19.08. 8:00 1015 + 0,9
Fr, 19.08. 2:00 1014 + 0,5
Do, 18.08. 20:00 1013 - 0,6
Do, 18.08. 14:00 1014 - 0,8
Do, 18.08. 8:00 1014 + 0,7
Do, 18.08. 2:00 1013 + 1,0
Ortszeit Luftdruck NN (hPa) Tendenz (hPa in 3 Std.)
Fr, 19.08. 20:00 1014 + 0,4
Fr, 19.08. 19:00 1015 + 0,8
Fr, 19.08. 18:00 1014 0,0
Fr, 19.08. 17:00 1014 - 0,6
Fr, 19.08. 16:00 1014 - 0,9
Fr, 19.08. 15:00 1014 - 0,6
Fr, 19.08. 14:00 1014 - 0,4
Ortszeit Schneehöhe (cm)
Fr, 19.08. 20:00 0
Fr, 19.08. 14:00 -
Fr, 19.08. 8:00 0
Fr, 19.08. 2:00 -
Do, 18.08. 20:00 0
Do, 18.08. 14:00 -
Do, 18.08. 8:00 0
Do, 18.08. 2:00 -
Ortszeit Schneehöhe (cm)
Fr, 19.08. 20:00 0
Fr, 19.08. 19:00 -
Fr, 19.08. 18:00 -
Fr, 19.08. 17:00 -
Fr, 19.08. 16:00 -
Fr, 19.08. 15:00 -
Fr, 19.08. 14:00 -
Link zu dieser Seite / Seite empfehlen

Das Wetter in ...